Florida Voyager — WDF4764 — position and weather

sailwx.info

Track history (hours):
 
Tides and Currents Weather Stations Pressure Air Temp Water Temp Dewpoint Dewpoint Depression Visibility Wind Speed Wind Dir Waves Ship Positions

Florida Voyager

Owner: Chevron USA Inc., Washington, DC. More information available from US FCC via Universal Licensing System and Coast Guard Vessel Documentation Center.

Last reported at 2018-Oct-23 20:04 UTC. Time now 2018-Oct-23 20:21 UTC.
Position N 33°42' W 120°17'.

Length 183 m; draft 9.8 m.

Type: Tanker. MMSI: 367455580.

Date/timePositionNaut miles runAvg speedWind from/ knotsBaromVisibWave heightAir tempDewpointWater temp
2018-Oct-23 20:04N 33°42' W 120°17'113.8
2018-Oct-23 20:00N 33°43' W 120°18'714.2
2018-Oct-23 19:30N 33°46' W 120°25'614.1
2018-Oct-23 19:03N 33°48' W 120°33'114.9
2018-Oct-23 19:00N 33°48' W 120°33'714.0
2018-Oct-23 18:31N 33°51' W 120°41'511.2
2018-Oct-23 18:03N 33°52' W 120°47'0 6.1
2018-Oct-23 18:01N 33°52' W 120°47'3 5.1
2018-Oct-23 17:31N 33°54' W 120°50'612.6
2018-Oct-23 17:03N 33°56' W 120°56'114.1
2018-Oct-23 16:58N 33°56' W 120°58'714.4
2018-Oct-23 16:30N 33°59' W 121°05'713.8
2018-Oct-23 16:01N 34°01' W 121°13'019.2
2018-Oct-23 16:00N 34°01' W 121°13'713.6
2018-Oct-23 15:30N 34°04' W 121°21'613.6
2018-Oct-23 15:03N 34°06' W 121°27'113.6
2018-Oct-23 15:00N 34°07' W 121°28'1313.8
2018-Oct-23 14:03N 34°16' W 121°40'814.2
2018-Oct-23 13:29N 34°21' W 121°47'614.2
2018-Oct-23 13:03N 34°26' W 121°51'113.7
2018-Oct-23 13:00N 34°27' W 121°52'814.1
2018-Oct-23 12:28N 34°32' W 121°58'914.1
2018-Oct-23 11:52N 34°38' W 122°05'514.1
2018-Oct-23 11:30N 34°42' W 122°09'17313.1
2018-Oct-22 22:19N 37°28' W 123°09'613.4
2018-Oct-22 21:52N 37°33' W 123°05'410.3
2018-Oct-22 21:30N 37°36' W 123°01'410.0
2018-Oct-22 21:03N 37°38' W 122°56'0 9.7
2018-Oct-22 21:00N 37°38' W 122°56'510.1
2018-Oct-22 20:30N 37°41' W 122°50'811.5
2018-Oct-22 19:50N 37°45' W 122°42'412.7
2018-Oct-22 19:30N 37°46' W 122°37'612.8
2018-Oct-22 19:03N 37°49' W 122°30'112.6
2018-Oct-22 19:00N 37°49' W 122°30'4 8.5
2018-Oct-22 18:31N 37°51' W 122°25'4 8.4
2018-Oct-22 18:03N 37°55' W 122°25'0 6.5
2018-Oct-22 18:00N 37°55' W 122°25'1 1.5
2018-Oct-22 17:30N 37°55' W 122°25'0 0.0
2018-Oct-22 11:29N 37°55' W 122°25'0 0.0
2018-Oct-21 22:17N 37°55' W 122°25'0 0.0
2018-Oct-21 20:47N 37°55' W 122°25'0 0.0
2018-Oct-21 20:23N 37°55' W 122°25'0 0.0
2018-Oct-21 18:35N 37°55' W 122°25'0 0.0
2018-Oct-21 18:29N 37°55' W 122°25'0 0.0
2018-Oct-21 17:47N 37°55' W 122°25'0 0.0
2018-Oct-21 15:05N 37°55' W 122°25'0 0.0
2018-Oct-21 13:05N 37°55' W 122°25'0 0.0
2018-Oct-21 09:35N 37°55' W 122°25'0 0.0
2018-Oct-21 09:29N 37°55' W 122°25'0 0.0
2018-Oct-21 07:50N 37°55' W 122°25'0 0.0
2018-Oct-21 01:08N 37°55' W 122°25'0 0.0
2018-Oct-21 01:02N 37°55' W 122°25'0 0.0
2018-Oct-21 00:59N 37°55' W 122°25'0 0.0
2018-Oct-20 23:53N 37°55' W 122°25'0 0.0
2018-Oct-20 22:53N 37°55' W 122°25'0 0.0
2018-Oct-20 22:20N 37°55' W 122°25'0 0.0
2018-Oct-20 21:35N 37°55' W 122°25'0 0.0
2018-Oct-20 21:23N 37°55' W 122°25'0 0.0
2018-Oct-20 20:59N 37°55' W 122°25'0 0.0
2018-Oct-20 19:47N 37°55' W 122°25'0 0.0
2018-Oct-20 19:23N 37°55' W 122°25'0 0.0
2018-Oct-20 18:53N 37°55' W 122°25'0 0.0
2018-Oct-20 17:59N 37°55' W 122°25'0 0.0
2018-Oct-20 17:29N 37°55' W 122°25'0 0.3
2018-Oct-20 16:59N 37°55' W 122°25'0 0.2
2018-Oct-20 16:29N 37°55' W 122°25'1 1.5
2018-Oct-20 16:04N 37°55' W 122°25'0 6.0
2018-Oct-20 16:00N 37°55' W 122°25'5 9.8
2018-Oct-20 15:30N 37°50' W 122°24'4 9.0
2018-Oct-20 15:04N 37°47' W 122°21'0 0.0
2018-Oct-20 15:00N 37°47' W 122°21'0 0.1
2018-Oct-20 14:03N 37°47' W 122°21'0 0.0
2018-Oct-20 13:30N 37°47' W 122°21'0 0.0
2018-Oct-20 13:03N 37°47' W 122°21'0 0.0
2018-Oct-20 13:00N 37°47' W 122°21'0 0.1
2018-Oct-20 12:30N 37°47' W 122°21'0 0.0
2018-Oct-20 12:03N 37°47' W 122°21'0 0.0
2018-Oct-20 12:00N 37°47' W 122°21'0 0.1
2018-Oct-20 11:30N 37°47' W 122°21'0 0.2
2018-Oct-20 11:03N 37°47' W 122°21'0 0.1
2018-Oct-20 11:00N 37°47' W 122°21'0 0.1
2018-Oct-20 10:30N 37°47' W 122°21'0 0.0
2018-Oct-20 10:03N 37°47' W 122°21'0 0.0
2018-Oct-20 10:00N 37°47' W 122°21'0 0.1
2018-Oct-20 09:30N 37°47' W 122°21'0 0.0
2018-Oct-20 09:03N 37°47' W 122°21'0 0.0
2018-Oct-20 09:00N 37°47' W 122°21'0 0.0
2018-Oct-20 08:30N 37°47' W 122°21'0 0.0
2018-Oct-20 08:03N 37°47' W 122°21'0 0.0
2018-Oct-20 08:00N 37°47' W 122°21'0 0.0
2018-Oct-20 07:24N 37°47' W 122°21'0 0.0
2018-Oct-20 07:03N 37°47' W 122°21'0 0.0
2018-Oct-20 07:00N 37°47' W 122°21'0 0.0
2018-Oct-20 06:30N 37°47' W 122°21'0 0.0
2018-Oct-20 06:03N 37°47' W 122°21'0 0.0
2018-Oct-20 06:00N 37°47' W 122°21'0 0.0
2018-Oct-20 05:30N 37°47' W 122°21'0 0.0
2018-Oct-20 05:03N 37°47' W 122°21'0 0.1
2018-Oct-20 05:00N 37°47' W 122°21'0 0.3
2018-Oct-20 04:30N 37°47' W 122°21'0 0.1
2018-Oct-20 04:03N 37°47' W 122°21'0 0.0
2018-Oct-20 04:00N 37°47' W 122°21'0 0.1
2018-Oct-20 03:30N 37°47' W 122°21'0 0.0
2018-Oct-20 03:03N 37°47' W 122°21'0 0.1
2018-Oct-20 03:00N 37°47' W 122°21'0 0.0
2018-Oct-20 02:30N 37°47' W 122°21'0 0.0
2018-Oct-20 02:03N 37°47' W 122°21'0 0.0
2018-Oct-20 02:00N 37°47' W 122°21'0 0.0
2018-Oct-20 01:30N 37°47' W 122°21'0 0.0
2018-Oct-20 01:03N 37°47' W 122°21'0 0.0
2018-Oct-20 00:57N 37°47' W 122°21'0 0.1
2018-Oct-20 00:30N 37°47' W 122°21'0 0.0
2018-Oct-20 00:03N 37°47' W 122°21'0 0.0
2018-Oct-20 00:00N 37°47' W 122°21'0 0.0
2018-Oct-19 23:30N 37°47' W 122°21'0 0.1
2018-Oct-19 23:03N 37°47' W 122°21'0 0.1
2018-Oct-19 23:00N 37°47' W 122°21'0 0.2
2018-Oct-19 22:30N 37°47' W 122°21'0 0.1
2018-Oct-19 22:03N 37°47' W 122°21'0 0.0
2018-Oct-19 22:00N 37°47' W 122°21'0 0.0
2018-Oct-19 21:30N 37°47' W 122°21'0 0.0
2018-Oct-19 21:03N 37°47' W 122°21'0 0.1
2018-Oct-19 21:00N 37°47' W 122°21'0 0.0
2018-Oct-19 20:30N 37°47' W 122°21'0 0.0
2018-Oct-19 20:00N 37°47' W 122°21'0 0.0
2018-Oct-19 19:30N 37°47' W 122°21'0 0.0
2018-Oct-19 19:03N 37°47' W 122°21'0 0.0
2018-Oct-19 19:00N 37°47' W 122°21'0 0.0
2018-Oct-19 18:31N 37°47' W 122°21'4 8.3
2018-Oct-19 18:04N 37°50' W 122°24'113.3
2018-Oct-19 18:00N 37°51' W 122°24'612.6
2018-Oct-19 17:31N 37°57' W 122°27'4 9.5
2018-Oct-19 17:03N 38°01' W 122°24'110.9
2018-Oct-19 17:00N 38°01' W 122°24'511.2
2018-Oct-19 16:31N 38°03' W 122°18'1 3.2
2018-Oct-19 16:03N 38°03' W 122°16'0 0.0
2018-Oct-19 15:57N 38°03' W 122°16'0 0.0
2018-Oct-19 08:33N 38°03' W 122°16'0 0.0
2018-Oct-19 08:27N 38°03' W 122°16'0 0.0
2018-Oct-19 08:03N 38°03' W 122°16'0 0.0
2018-Oct-19 07:57N 38°03' W 122°16'0 0.0
2018-Oct-19 07:15N 38°03' W 122°16'0 0.0
2018-Oct-19 07:03N 38°03' W 122°16'0 0.0
2018-Oct-19 05:27N 38°03' W 122°16'0 0.0
2018-Oct-19 04:51N 38°03' W 122°16'0 0.0
2018-Oct-19 02:57N 38°03' W 122°16'0 0.0
2018-Oct-19 02:09N 38°03' W 122°16'0 0.0
2018-Oct-19 01:57N 38°03' W 122°16'0 0.0
2018-Oct-18 05:57N 38°03' W 122°16'0 0.0
2018-Oct-18 05:27N 38°03' W 122°16'0 0.0
2018-Oct-18 05:03N 38°03' W 122°16'0 0.0
2018-Oct-18 04:45N 38°03' W 122°16'0 0.0
2018-Oct-18 04:21N 38°03' W 122°16'0 0.0
2018-Oct-18 03:45N 38°03' W 122°16'0 0.0
2018-Oct-18 03:27N 38°03' W 122°16'0 0.0
2018-Oct-18 03:03N 38°03' W 122°16'0 0.0
2018-Oct-18 02:57N 38°03' W 122°16'0 0.0
2018-Oct-18 02:27N 38°03' W 122°16'0 0.0
2018-Oct-18 02:03N 38°03' W 122°16'0 0.0
2018-Oct-18 01:51N 38°03' W 122°16'0 0.0
2018-Oct-17 18:57N 38°03' W 122°16'0 0.0
2018-Oct-17 16:54N 38°03' W 122°16'0 0.3
2018-Oct-17 16:30N 38°03' W 122°16'1 1.7
2018-Oct-17 15:59N 38°04' W 122°17'4 8.5
2018-Oct-17 15:30N 38°02' W 122°22'510.8
2018-Oct-17 15:03N 37°59' W 122°26'0 9.2
2018-Oct-17 15:00N 37°58' W 122°26'3 6.6
2018-Oct-17 14:30N 37°55' W 122°25'0 0.0
2018-Oct-17 09:23N 37°55' W 122°25'0 0.0
2018-Oct-17 08:20N 37°55' W 122°25'0 0.0
2018-Oct-17 07:14N 37°55' W 122°25'0 0.0
2018-Oct-17 00:14N 37°55' W 122°25'0 0.0
2018-Oct-16 23:26N 37°55' W 122°25'0 0.0
2018-Oct-16 22:53N 37°55' W 122°25'0 0.0
2018-Oct-16 22:26N 37°55' W 122°25'0 0.0
2018-Oct-16 22:02N 37°55' W 122°25'0 0.0
2018-Oct-16 21:44N 37°55' W 122°25'0 0.0
2018-Oct-16 21:20N 37°55' W 122°25'0 0.0
2018-Oct-16 21:02N 37°55' W 122°25'0 0.0
2018-Oct-16 20:41N 37°55' W 122°25'0 0.0
2018-Oct-16 20:02N 37°55' W 122°25'0 0.0
2018-Oct-16 19:56N 37°55' W 122°25'0 0.0
2018-Oct-16 19:29N 37°55' W 122°25'0 0.0
2018-Oct-16 17:56N 37°55' W 122°25'0 0.0
2018-Oct-16 06:56N 37°55' W 122°25'0 0.0
2018-Oct-16 06:11N 37°55' W 122°25'0 0.0
2018-Oct-16 05:08N 37°55' W 122°25'0 0.0
2018-Oct-16 04:53N 37°55' W 122°25'0 0.0
2018-Oct-16 04:17N 37°55' W 122°25'0 0.0
2018-Oct-16 03:38N 37°55' W 122°25'0 0.0
2018-Oct-16 03:05N 37°55' W 122°25'0 0.0
2018-Oct-16 02:55N 37°55' W 122°25'0 0.3
2018-Oct-16 02:30N 37°55' W 122°25'2 3.7
2018-Oct-16 02:03N 37°54' W 122°25'0 8.3
2018-Oct-16 02:00N 37°53' W 122°25'4 8.1
2018-Oct-16 01:31N 37°49' W 122°24'3 7.0
2018-Oct-16 01:03N 37°47' W 122°21'0 0.5
2018-Oct-16 00:58N 37°47' W 122°21'0 0.2
2018-Oct-16 00:28N 37°47' W 122°21'0 0.2
2018-Oct-16 00:01N 37°47' W 122°21'0 0.1
2018-Oct-15 23:58N 37°47' W 122°21'0 0.1
2018-Oct-15 23:28N 37°47' W 122°21'0 0.1
2018-Oct-15 23:01N 37°47' W 122°21'0 0.0
2018-Oct-15 22:58N 37°47' W 122°21'0 0.0
2018-Oct-15 22:28N 37°47' W 122°21'0 0.0
2018-Oct-15 22:01N 37°47' W 122°21'0 0.1
2018-Oct-15 21:58N 37°47' W 122°21'0 0.0
2018-Oct-15 21:28N 37°47' W 122°21'0 0.0
2018-Oct-15 21:01N 37°47' W 122°21'0 1.0
2018-Oct-15 20:58N 37°47' W 122°21'0 0.0
2018-Oct-15 20:28N 37°47' W 122°21'0 0.1
2018-Oct-15 20:01N 37°47' W 122°21'0 0.1
2018-Oct-15 19:58N 37°47' W 122°21'0 0.2
2018-Oct-15 19:28N 37°47' W 122°21'0 0.1
2018-Oct-15 19:01N 37°47' W 122°21'0 0.0
2018-Oct-15 18:58N 37°47' W 122°21'0 0.0
2018-Oct-15 18:28N 37°47' W 122°21'0 0.0
2018-Oct-15 18:01N 37°47' W 122°21'0 0.0
2018-Oct-15 17:58N 37°47' W 122°21'0 0.1
2018-Oct-15 17:28N 37°47' W 122°21'0 0.0
2018-Oct-15 17:01N 37°47' W 122°21'0 0.0
2018-Oct-15 16:58N 37°47' W 122°21'0 0.0
2018-Oct-15 16:28N 37°47' W 122°21'0 0.0
2018-Oct-15 16:01N 37°47' W 122°21'0 0.1
2018-Oct-15 15:58N 37°47' W 122°21'0 0.1
2018-Oct-15 15:28N 37°47' W 122°21'0 0.0
2018-Oct-15 15:01N 37°47' W 122°21'0 0.0
2018-Oct-15 14:58N 37°47' W 122°21'0 0.0
2018-Oct-15 14:25N 37°47' W 122°21'0 0.0
2018-Oct-15 13:58N 37°47' W 122°21'0 0.2
2018-Oct-15 13:28N 37°47' W 122°21'0 0.1
2018-Oct-15 12:58N 37°47' W 122°21'0 0.1
2018-Oct-15 12:28N 37°47' W 122°21'0 0.0
2018-Oct-15 12:01N 37°47' W 122°21'0 0.1
2018-Oct-15 11:58N 37°47' W 122°21'0 0.0
2018-Oct-15 11:28N 37°47' W 122°21'0 0.1
2018-Oct-15 11:01N 37°47' W 122°21'0 0.0
2018-Oct-15 10:58N 37°47' W 122°21'0 0.0
2018-Oct-15 10:25N 37°47' W 122°21'0 0.1
2018-Oct-15 10:01N 37°47' W 122°21'0 0.0
2018-Oct-15 09:58N 37°47' W 122°21'0 0.0
2018-Oct-15 09:28N 37°47' W 122°21'0 0.0
2018-Oct-15 09:01N 37°47' W 122°21'0 0.0
2018-Oct-15 08:58N 37°47' W 122°21'0 0.1
2018-Oct-15 08:25N 37°47' W 122°21'0 0.0
2018-Oct-15 08:01N 37°47' W 122°21'0 0.1
2018-Oct-15 07:58N 37°47' W 122°21'0 0.0
2018-Oct-15 07:28N 37°47' W 122°21'0 0.1
2018-Oct-15 07:01N 37°47' W 122°21'0 0.0
2018-Oct-15 06:58N 37°47' W 122°21'0 0.3
2018-Oct-15 06:28N 37°47' W 122°21'0 0.2
2018-Oct-15 06:01N 37°47' W 122°21'0 0.1
2018-Oct-15 05:58N 37°47' W 122°21'0 0.1
2018-Oct-15 05:28N 37°47' W 122°21'0 0.0
2018-Oct-15 05:01N 37°47' W 122°21'0 0.1
2018-Oct-15 04:58N 37°47' W 122°21'0 0.0
2018-Oct-15 04:28N 37°47' W 122°21'0 0.0
2018-Oct-15 04:01N 37°47' W 122°21'0 0.0
2018-Oct-15 03:52N 37°47' W 122°21'0 0.0
2018-Oct-15 03:28N 37°47' W 122°21'0 0.0
2018-Oct-15 03:01N 37°47' W 122°21'0 0.0
2018-Oct-15 02:58N 37°47' W 122°21'0 0.0
2018-Oct-15 02:28N 37°47' W 122°21'0 0.0
2018-Oct-15 01:58N 37°47' W 122°21'0 0.0
2018-Oct-15 01:28N 37°47' W 122°21'0 0.0
2018-Oct-15 01:01N 37°47' W 122°21'0 0.1
2018-Oct-15 00:58N 37°47' W 122°21'0 0.0
2018-Oct-15 00:28N 37°47' W 122°21'0 0.3
2018-Oct-15 00:01N 37°47' W 122°21'0 0.1
2018-Oct-14 23:58N 37°47' W 122°21'0 0.1
2018-Oct-14 23:28N 37°47' W 122°21'0 0.1
2018-Oct-14 23:01N 37°47' W 122°21'0 0.1
2018-Oct-14 22:58N 37°47' W 122°21'0 0.1
2018-Oct-14 22:28N 37°47' W 122°21'0 0.0
2018-Oct-14 22:01N 37°47' W 122°21'0 0.1
2018-Oct-14 21:55N 37°47' W 122°21'0 0.0
2018-Oct-14 21:28N 37°47' W 122°21'0 0.0
2018-Oct-14 21:01N 37°47' W 122°21'0 0.0
2018-Oct-14 20:58N 37°47' W 122°21'0 0.0
2018-Oct-14 20:28N 37°47' W 122°21'0 0.0
2018-Oct-14 20:01N 37°47' W 122°21'0 0.0
2018-Oct-14 19:58N 37°47' W 122°21'0 0.0
2018-Oct-14 19:28N 37°47' W 122°21'0 0.0
2018-Oct-14 19:01N 37°47' W 122°21'0 0.1
2018-Oct-14 18:58N 37°47' W 122°21'0 0.3
2018-Oct-14 18:28N 37°47' W 122°21'0 0.1
2018-Oct-14 18:01N 37°47' W 122°21'0 0.0
2018-Oct-14 17:58N 37°47' W 122°21'0 0.1
2018-Oct-14 17:28N 37°47' W 122°21'0 0.0
2018-Oct-14 17:01N 37°47' W 122°21'0 0.1
2018-Oct-14 16:55N 37°47' W 122°21'0 0.0
2018-Oct-14 16:28N 37°47' W 122°21'0 0.0
2018-Oct-14 16:01N 37°47' W 122°21'0 0.0
2018-Oct-14 15:58N 37°47' W 122°21'0 0.0
2018-Oct-14 15:28N 37°47' W 122°21'0 0.1
2018-Oct-14 15:01N 37°47' W 122°21'0 0.8
2018-Oct-14 14:59N 37°47' W 122°21'4 4.6
2018-Oct-14 14:03N 37°51' W 122°24'0 9.5
2018-Oct-14 14:00N 37°51' W 122°24'4 8.8
2018-Oct-14 13:30N 37°55' W 122°25'  
Track history (hours):
 
Tides and Currents Weather Stations Pressure Air Temp Water Temp Dewpoint Dewpoint Depression Visibility Wind Speed Wind Dir Waves Ship Positions

Florida Voyager

Owner: Chevron USA Inc., Washington, DC. More information available from US FCC via Universal Licensing System and Coast Guard Vessel Documentation Center.

Last reported at 2018-Oct-23 20:04 UTC. Time now 2018-Oct-23 20:21 UTC.
Position N 33°42' W 120°17'.

Length 183 m; draft 9.8 m.

Type: Tanker. MMSI: 367455580.

Date/timePositionNaut miles runAvg speedWind from/ knotsBaromVisibWave heightAir tempDewpointWater temp
2018-Oct-23 20:04N 33°42' W 120°17'113.8
2018-Oct-23 20:00N 33°43' W 120°18'714.2
2018-Oct-23 19:30N 33°46' W 120°25'614.1
2018-Oct-23 19:03N 33°48' W 120°33'114.9
2018-Oct-23 19:00N 33°48' W 120°33'714.0
2018-Oct-23 18:31N 33°51' W 120°41'511.2
2018-Oct-23 18:03N 33°52' W 120°47'0 6.1
2018-Oct-23 18:01N 33°52' W 120°47'3 5.1
2018-Oct-23 17:31N 33°54' W 120°50'612.6
2018-Oct-23 17:03N 33°56' W 120°56'114.1
2018-Oct-23 16:58N 33°56' W 120°58'714.4
2018-Oct-23 16:30N 33°59' W 121°05'713.8
2018-Oct-23 16:01N 34°01' W 121°13'019.2
2018-Oct-23 16:00N 34°01' W 121°13'713.6
2018-Oct-23 15:30N 34°04' W 121°21'613.6
2018-Oct-23 15:03N 34°06' W 121°27'113.6
2018-Oct-23 15:00N 34°07' W 121°28'1313.8
2018-Oct-23 14:03N 34°16' W 121°40'814.2
2018-Oct-23 13:29N 34°21' W 121°47'614.2
2018-Oct-23 13:03N 34°26' W 121°51'113.7
2018-Oct-23 13:00N 34°27' W 121°52'814.1
2018-Oct-23 12:28N 34°32' W 121°58'914.1
2018-Oct-23 11:52N 34°38' W 122°05'514.1
2018-Oct-23 11:30N 34°42' W 122°09'17313.1
2018-Oct-22 22:19N 37°28' W 123°09'613.4
2018-Oct-22 21:52N 37°33' W 123°05'410.3
2018-Oct-22 21:30N 37°36' W 123°01'410.0
2018-Oct-22 21:03N 37°38' W 122°56'0 9.7
2018-Oct-22 21:00N 37°38' W 122°56'510.1
2018-Oct-22 20:30N 37°41' W 122°50'811.5
2018-Oct-22 19:50N 37°45' W 122°42'412.7
2018-Oct-22 19:30N 37°46' W 122°37'612.8
2018-Oct-22 19:03N 37°49' W 122°30'112.6
2018-Oct-22 19:00N 37°49' W 122°30'4 8.5
2018-Oct-22 18:31N 37°51' W 122°25'4 8.4
2018-Oct-22 18:03N 37°55' W 122°25'0 6.5
2018-Oct-22 18:00N 37°55' W 122°25'1 1.5
2018-Oct-22 17:30N 37°55' W 122°25'0 0.0
2018-Oct-22 11:29N 37°55' W 122°25'0 0.0
2018-Oct-21 22:17N 37°55' W 122°25'0 0.0
2018-Oct-21 20:47N 37°55' W 122°25'0 0.0
2018-Oct-21 20:23N 37°55' W 122°25'0 0.0
2018-Oct-21 18:35N 37°55' W 122°25'0 0.0
2018-Oct-21 18:29N 37°55' W 122°25'0 0.0
2018-Oct-21 17:47N 37°55' W 122°25'0 0.0
2018-Oct-21 15:05N 37°55' W 122°25'0 0.0
2018-Oct-21 13:05N 37°55' W 122°25'0 0.0
2018-Oct-21 09:35N 37°55' W 122°25'0 0.0
2018-Oct-21 09:29N 37°55' W 122°25'0 0.0
2018-Oct-21 07:50N 37°55' W 122°25'0 0.0
2018-Oct-21 01:08N 37°55' W 122°25'0 0.0
2018-Oct-21 01:02N 37°55' W 122°25'0 0.0
2018-Oct-21 00:59N 37°55' W 122°25'0 0.0
2018-Oct-20 23:53N 37°55' W 122°25'0 0.0
2018-Oct-20 22:53N 37°55' W 122°25'0 0.0
2018-Oct-20 22:20N 37°55' W 122°25'0 0.0
2018-Oct-20 21:35N 37°55' W 122°25'0 0.0
2018-Oct-20 21:23N 37°55' W 122°25'0 0.0
2018-Oct-20 20:59N 37°55' W 122°25'0 0.0
2018-Oct-20 19:47N 37°55' W 122°25'0 0.0
2018-Oct-20 19:23N 37°55' W 122°25'0 0.0
2018-Oct-20 18:53N 37°55' W 122°25'0 0.0
2018-Oct-20 17:59N 37°55' W 122°25'0 0.0
2018-Oct-20 17:29N 37°55' W 122°25'0 0.3
2018-Oct-20 16:59N 37°55' W 122°25'0 0.2
2018-Oct-20 16:29N 37°55' W 122°25'1 1.5
2018-Oct-20 16:04N 37°55' W 122°25'0 6.0
2018-Oct-20 16:00N 37°55' W 122°25'5 9.8
2018-Oct-20 15:30N 37°50' W 122°24'4 9.0
2018-Oct-20 15:04N 37°47' W 122°21'0 0.0
2018-Oct-20 15:00N 37°47' W 122°21'0 0.1
2018-Oct-20 14:03N 37°47' W 122°21'0 0.0
2018-Oct-20 13:30N 37°47' W 122°21'0 0.0
2018-Oct-20 13:03N 37°47' W 122°21'0 0.0
2018-Oct-20 13:00N 37°47' W 122°21'0 0.1
2018-Oct-20 12:30N 37°47' W 122°21'0 0.0
2018-Oct-20 12:03N 37°47' W 122°21'0 0.0
2018-Oct-20 12:00N 37°47' W 122°21'0 0.1
2018-Oct-20 11:30N 37°47' W 122°21'0 0.2
2018-Oct-20 11:03N 37°47' W 122°21'0 0.1
2018-Oct-20 11:00N 37°47' W 122°21'0 0.1
2018-Oct-20 10:30N 37°47' W 122°21'0 0.0
2018-Oct-20 10:03N 37°47' W 122°21'0 0.0
2018-Oct-20 10:00N 37°47' W 122°21'0 0.1
2018-Oct-20 09:30N 37°47' W 122°21'0 0.0
2018-Oct-20 09:03N 37°47' W 122°21'0 0.0
2018-Oct-20 09:00N 37°47' W 122°21'0 0.0
2018-Oct-20 08:30N 37°47' W 122°21'0 0.0
2018-Oct-20 08:03N 37°47' W 122°21'0 0.0
2018-Oct-20 08:00N 37°47' W 122°21'0 0.0
2018-Oct-20 07:24N 37°47' W 122°21'0 0.0
2018-Oct-20 07:03N 37°47' W 122°21'0 0.0
2018-Oct-20 07:00N 37°47' W 122°21'0 0.0
2018-Oct-20 06:30N 37°47' W 122°21'0 0.0
2018-Oct-20 06:03N 37°47' W 122°21'0 0.0
2018-Oct-20 06:00N 37°47' W 122°21'0 0.0
2018-Oct-20 05:30N 37°47' W 122°21'0 0.0
2018-Oct-20 05:03N 37°47' W 122°21'0 0.1
2018-Oct-20 05:00N 37°47' W 122°21'0 0.3
2018-Oct-20 04:30N 37°47' W 122°21'0 0.1
2018-Oct-20 04:03N 37°47' W 122°21'0 0.0
2018-Oct-20 04:00N 37°47' W 122°21'0 0.1
2018-Oct-20 03:30N 37°47' W 122°21'0 0.0
2018-Oct-20 03:03N 37°47' W 122°21'0 0.1
2018-Oct-20 03:00N 37°47' W 122°21'0 0.0
2018-Oct-20 02:30N 37°47' W 122°21'0 0.0
2018-Oct-20 02:03N 37°47' W 122°21'0 0.0
2018-Oct-20 02:00N 37°47' W 122°21'0 0.0
2018-Oct-20 01:30N 37°47' W 122°21'0 0.0
2018-Oct-20 01:03N 37°47' W 122°21'0 0.0
2018-Oct-20 00:57N 37°47' W 122°21'0 0.1
2018-Oct-20 00:30N 37°47' W 122°21'0 0.0
2018-Oct-20 00:03N 37°47' W 122°21'0 0.0
2018-Oct-20 00:00N 37°47' W 122°21'0 0.0
2018-Oct-19 23:30N 37°47' W 122°21'0 0.1
2018-Oct-19 23:03N 37°47' W 122°21'0 0.1
2018-Oct-19 23:00N 37°47' W 122°21'0 0.2
2018-Oct-19 22:30N 37°47' W 122°21'0 0.1
2018-Oct-19 22:03N 37°47' W 122°21'0 0.0
2018-Oct-19 22:00N 37°47' W 122°21'0 0.0
2018-Oct-19 21:30N 37°47' W 122°21'0 0.0
2018-Oct-19 21:03N 37°47' W 122°21'0 0.1
2018-Oct-19 21:00N 37°47' W 122°21'0 0.0
2018-Oct-19 20:30N 37°47' W 122°21'0 0.0
2018-Oct-19 20:00N 37°47' W 122°21'0 0.0
2018-Oct-19 19:30N 37°47' W 122°21'0 0.0
2018-Oct-19 19:03N 37°47' W 122°21'0 0.0
2018-Oct-19 19:00N 37°47' W 122°21'0 0.0
2018-Oct-19 18:31N 37°47' W 122°21'4 8.3
2018-Oct-19 18:04N 37°50' W 122°24'113.3
2018-Oct-19 18:00N 37°51' W 122°24'612.6
2018-Oct-19 17:31N 37°57' W 122°27'4 9.5
2018-Oct-19 17:03N 38°01' W 122°24'110.9
2018-Oct-19 17:00N 38°01' W 122°24'511.2
2018-Oct-19 16:31N 38°03' W 122°18'1 3.2
2018-Oct-19 16:03N 38°03' W 122°16'0 0.0
2018-Oct-19 15:57N 38°03' W 122°16'0 0.0
2018-Oct-19 08:33N 38°03' W 122°16'0 0.0
2018-Oct-19 08:27N 38°03' W 122°16'0 0.0
2018-Oct-19 08:03N 38°03' W 122°16'0 0.0
2018-Oct-19 07:57N 38°03' W 122°16'0 0.0
2018-Oct-19 07:15N 38°03' W 122°16'0 0.0
2018-Oct-19 07:03N 38°03' W 122°16'0 0.0
2018-Oct-19 05:27N 38°03' W 122°16'0 0.0
2018-Oct-19 04:51N 38°03' W 122°16'0 0.0
2018-Oct-19 02:57N 38°03' W 122°16'0 0.0
2018-Oct-19 02:09N 38°03' W 122°16'0 0.0
2018-Oct-19 01:57N 38°03' W 122°16'0 0.0
2018-Oct-18 05:57N 38°03' W 122°16'0 0.0
2018-Oct-18 05:27N 38°03' W 122°16'0 0.0
2018-Oct-18 05:03N 38°03' W 122°16'0 0.0
2018-Oct-18 04:45N 38°03' W 122°16'0 0.0
2018-Oct-18 04:21N 38°03' W 122°16'0 0.0
2018-Oct-18 03:45N 38°03' W 122°16'0 0.0
2018-Oct-18 03:27N 38°03' W 122°16'0 0.0
2018-Oct-18 03:03N 38°03' W 122°16'0 0.0
2018-Oct-18 02:57N 38°03' W 122°16'0 0.0
2018-Oct-18 02:27N 38°03' W 122°16'0 0.0
2018-Oct-18 02:03N 38°03' W 122°16'0 0.0
2018-Oct-18 01:51N 38°03' W 122°16'0 0.0
2018-Oct-17 18:57N 38°03' W 122°16'0 0.0
2018-Oct-17 16:54N 38°03' W 122°16'0 0.3
2018-Oct-17 16:30N 38°03' W 122°16'1 1.7
2018-Oct-17 15:59N 38°04' W 122°17'4 8.5
2018-Oct-17 15:30N 38°02' W 122°22'510.8
2018-Oct-17 15:03N 37°59' W 122°26'0 9.2
2018-Oct-17 15:00N 37°58' W 122°26'3 6.6
2018-Oct-17 14:30N 37°55' W 122°25'0 0.0
2018-Oct-17 09:23N 37°55' W 122°25'0 0.0
2018-Oct-17 08:20N 37°55' W 122°25'0 0.0
2018-Oct-17 07:14N 37°55' W 122°25'0 0.0
2018-Oct-17 00:14N 37°55' W 122°25'0 0.0
2018-Oct-16 23:26N 37°55' W 122°25'0 0.0
2018-Oct-16 22:53N 37°55' W 122°25'0 0.0
2018-Oct-16 22:26N 37°55' W 122°25'0 0.0
2018-Oct-16 22:02N 37°55' W 122°25'0 0.0
2018-Oct-16 21:44N 37°55' W 122°25'0 0.0
2018-Oct-16 21:20N 37°55' W 122°25'0 0.0
2018-Oct-16 21:02N 37°55' W 122°25'0 0.0
2018-Oct-16 20:41N 37°55' W 122°25'0 0.0
2018-Oct-16 20:02N 37°55' W 122°25'0 0.0
2018-Oct-16 19:56N 37°55' W 122°25'0 0.0
2018-Oct-16 19:29N 37°55' W 122°25'0 0.0
2018-Oct-16 17:56N 37°55' W 122°25'0 0.0
2018-Oct-16 06:56N 37°55' W 122°25'0 0.0
2018-Oct-16 06:11N 37°55' W 122°25'0 0.0
2018-Oct-16 05:08N 37°55' W 122°25'0 0.0
2018-Oct-16 04:53N 37°55' W 122°25'0 0.0
2018-Oct-16 04:17N 37°55' W 122°25'0 0.0
2018-Oct-16 03:38N 37°55' W 122°25'0 0.0
2018-Oct-16 03:05N 37°55' W 122°25'0 0.0
2018-Oct-16 02:55N 37°55' W 122°25'0 0.3
2018-Oct-16 02:30N 37°55' W 122°25'2 3.7
2018-Oct-16 02:03N 37°54' W 122°25'0 8.3
2018-Oct-16 02:00N 37°53' W 122°25'4 8.1
2018-Oct-16 01:31N 37°49' W 122°24'3 7.0
2018-Oct-16 01:03N 37°47' W 122°21'0 0.5
2018-Oct-16 00:58N 37°47' W 122°21'0 0.2
2018-Oct-16 00:28N 37°47' W 122°21'0 0.2
2018-Oct-16 00:01N 37°47' W 122°21'0 0.1
2018-Oct-15 23:58N 37°47' W 122°21'0 0.1
2018-Oct-15 23:28N 37°47' W 122°21'0 0.1
2018-Oct-15 23:01N 37°47' W 122°21'0 0.0
2018-Oct-15 22:58N 37°47' W 122°21'0 0.0
2018-Oct-15 22:28N 37°47' W 122°21'0 0.0
2018-Oct-15 22:01N 37°47' W 122°21'0 0.1
2018-Oct-15 21:58N 37°47' W 122°21'0 0.0
2018-Oct-15 21:28N 37°47' W 122°21'0 0.0
2018-Oct-15 21:01N 37°47' W 122°21'0 1.0
2018-Oct-15 20:58N 37°47' W 122°21'0 0.0
2018-Oct-15 20:28N 37°47' W 122°21'0 0.1
2018-Oct-15 20:01N 37°47' W 122°21'0 0.1
2018-Oct-15 19:58N 37°47' W 122°21'0 0.2
2018-Oct-15 19:28N 37°47' W 122°21'0 0.1
2018-Oct-15 19:01N 37°47' W 122°21'0 0.0
2018-Oct-15 18:58N 37°47' W 122°21'0 0.0
2018-Oct-15 18:28N 37°47' W 122°21'0 0.0
2018-Oct-15 18:01N 37°47' W 122°21'0 0.0
2018-Oct-15 17:58N 37°47' W 122°21'0 0.1
2018-Oct-15 17:28N 37°47' W 122°21'0 0.0
2018-Oct-15 17:01N 37°47' W 122°21'0 0.0
2018-Oct-15 16:58N 37°47' W 122°21'0 0.0
2018-Oct-15 16:28N 37°47' W 122°21'0 0.0
2018-Oct-15 16:01N 37°47' W 122°21'0 0.1
2018-Oct-15 15:58N 37°47' W 122°21'0 0.1
2018-Oct-15 15:28N 37°47' W 122°21'0 0.0
2018-Oct-15 15:01N 37°47' W 122°21'0 0.0
2018-Oct-15 14:58N 37°47' W 122°21'0 0.0
2018-Oct-15 14:25N 37°47' W 122°21'0 0.0
2018-Oct-15 13:58N 37°47' W 122°21'0 0.2
2018-Oct-15 13:28N 37°47' W 122°21'0 0.1
2018-Oct-15 12:58N 37°47' W 122°21'0 0.1
2018-Oct-15 12:28N 37°47' W 122°21'0 0.0
2018-Oct-15 12:01N 37°47' W 122°21'0 0.1
2018-Oct-15 11:58N 37°47' W 122°21'0 0.0
2018-Oct-15 11:28N 37°47' W 122°21'0 0.1
2018-Oct-15 11:01N 37°47' W 122°21'0 0.0
2018-Oct-15 10:58N 37°47' W 122°21'0 0.0
2018-Oct-15 10:25N 37°47' W 122°21'0 0.1
2018-Oct-15 10:01N 37°47' W 122°21'0 0.0
2018-Oct-15 09:58N 37°47' W 122°21'0 0.0
2018-Oct-15 09:28N 37°47' W 122°21'0 0.0
2018-Oct-15 09:01N 37°47' W 122°21'0 0.0
2018-Oct-15 08:58N 37°47' W 122°21'0 0.1
2018-Oct-15 08:25N 37°47' W 122°21'0 0.0
2018-Oct-15 08:01N 37°47' W 122°21'0 0.1
2018-Oct-15 07:58N 37°47' W 122°21'0 0.0
2018-Oct-15 07:28N 37°47' W 122°21'0 0.1
2018-Oct-15 07:01N 37°47' W 122°21'0 0.0
2018-Oct-15 06:58N 37°47' W 122°21'0 0.3
2018-Oct-15 06:28N 37°47' W 122°21'0 0.2
2018-Oct-15 06:01N 37°47' W 122°21'0 0.1
2018-Oct-15 05:58N 37°47' W 122°21'0 0.1
2018-Oct-15 05:28N 37°47' W 122°21'0 0.0
2018-Oct-15 05:01N 37°47' W 122°21'0 0.1
2018-Oct-15 04:58N 37°47' W 122°21'0 0.0
2018-Oct-15 04:28N 37°47' W 122°21'0 0.0
2018-Oct-15 04:01N 37°47' W 122°21'0 0.0
2018-Oct-15 03:52N 37°47' W 122°21'0 0.0
2018-Oct-15 03:28N 37°47' W 122°21'0 0.0
2018-Oct-15 03:01N 37°47' W 122°21'0 0.0
2018-Oct-15 02:58N 37°47' W 122°21'0 0.0
2018-Oct-15 02:28N 37°47' W 122°21'0 0.0
2018-Oct-15 01:58N 37°47' W 122°21'0 0.0
2018-Oct-15 01:28N 37°47' W 122°21'0 0.0
2018-Oct-15 01:01N 37°47' W 122°21'0 0.1
2018-Oct-15 00:58N 37°47' W 122°21'0 0.0
2018-Oct-15 00:28N 37°47' W 122°21'0 0.3
2018-Oct-15 00:01N 37°47' W 122°21'0 0.1
2018-Oct-14 23:58N 37°47' W 122°21'0 0.1
2018-Oct-14 23:28N 37°47' W 122°21'0 0.1
2018-Oct-14 23:01N 37°47' W 122°21'0 0.1
2018-Oct-14 22:58N 37°47' W 122°21'0 0.1
2018-Oct-14 22:28N 37°47' W 122°21'0 0.0
2018-Oct-14 22:01N 37°47' W 122°21'0 0.1
2018-Oct-14 21:55N 37°47' W 122°21'0 0.0
2018-Oct-14 21:28N 37°47' W 122°21'0 0.0
2018-Oct-14 21:01N 37°47' W 122°21'0 0.0
2018-Oct-14 20:58N 37°47' W 122°21'0 0.0
2018-Oct-14 20:28N 37°47' W 122°21'0 0.0
2018-Oct-14 20:01N 37°47' W 122°21'0 0.0
2018-Oct-14 19:58N 37°47' W 122°21'0 0.0
2018-Oct-14 19:28N 37°47' W 122°21'0 0.0
2018-Oct-14 19:01N 37°47' W 122°21'0 0.1
2018-Oct-14 18:58N 37°47' W 122°21'0 0.3
2018-Oct-14 18:28N 37°47' W 122°21'0 0.1
2018-Oct-14 18:01N 37°47' W 122°21'0 0.0
2018-Oct-14 17:58N 37°47' W 122°21'0 0.1
2018-Oct-14 17:28N 37°47' W 122°21'0 0.0
2018-Oct-14 17:01N 37°47' W 122°21'0 0.1
2018-Oct-14 16:55N 37°47' W 122°21'0 0.0
2018-Oct-14 16:28N 37°47' W 122°21'0 0.0
2018-Oct-14 16:01N 37°47' W 122°21'0 0.0
2018-Oct-14 15:58N 37°47' W 122°21'0 0.0
2018-Oct-14 15:28N 37°47' W 122°21'0 0.1
2018-Oct-14 15:01N 37°47' W 122°21'0 0.8
2018-Oct-14 14:59N 37°47' W 122°21'4 4.6
2018-Oct-14 14:03N 37°51' W 122°24'0 9.5
2018-Oct-14 14:00N 37°51' W 122°24'4 8.8
2018-Oct-14 13:30N 37°55' W 122°25'  

Dump ship's entire track history